Time;durP1;ratioP1;P1;durP2;ratioP2;P2;SDS_P1;SDS_P2;PMS_P1;PMS_P2;Temp;Humidity;BMP_temperature;BMP_pressure;BME280_temperature;BME280_humidity;BME280_pressure;Samples;Min_cycle;Max_cycle;Signal;HPM_P1;HPM_P2
2023/07/31 00:02:04;;;;;;;0.28;0.28;;;;;;;22.71;64.12;99558.91;4390234;32;33569;-87
2023/07/31 00:04:32;;;;;;;0.22;0.22;;;;;;;22.65;64.18;99556.81;4364812;32;33084;-88
2023/07/31 00:06:59;;;;;;;0.37;0.37;;;;;;;22.72;63.98;99563.28;4372569;32;34460;-88
2023/07/31 00:09:27;;;;;;;2.08;0.70;;;;;;;22.87;63.24;99560.09;4373844;32;33019;-87
2023/07/31 00:11:55;;;;;;;1.02;0.55;;;;;;;22.87;63.27;99552.84;4378644;32;33306;-87
2023/07/31 00:14:22;;;;;;;0.40;0.40;;;;;;;22.79;63.52;99557.28;4370626;32;33492;-87
2023/07/31 00:16:50;;;;;;;0.10;0.10;;;;;;;22.80;63.61;99554.47;4374017;32;32189;-87
2023/07/31 00:19:19;;;;;;;0.65;0.40;;;;;;;22.91;63.07;99551.59;4375616;32;33565;-87
2023/07/31 00:21:47;;;;;;;0.25;0.25;;;;;;;22.96;62.79;99556.50;4375381;32;33083;-87
2023/07/31 00:24:14;;;;;;;0.13;0.13;;;;;;;23.20;62.13;99562.16;4376435;32;33315;-88
2023/07/31 00:26:42;;;;;;;0.43;0.43;;;;;;;23.06;62.56;99568.06;4378020;32;32828;-88
2023/07/31 00:29:10;;;;;;;0.47;0.30;;;;;;;22.85;63.33;99567.47;4375721;32;33709;-88
2023/07/31 00:31:38;;;;;;;0.15;0.15;;;;;;;22.95;62.90;99565.59;4368922;32;32822;-88
2023/07/31 00:34:05;;;;;;;1.33;0.80;;;;;;;22.70;63.63;99564.44;4386518;32;32198;-89
2023/07/31 00:36:34;;;;;;;0.98;0.68;;;;;;;22.67;63.62;99564.75;4394568;32;33467;-89
2023/07/31 00:39:01;;;;;;;0.62;0.60;;;;;;;22.56;63.96;99568.47;4371283;32;33685;-88
2023/07/31 00:41:29;;;;;;;1.45;0.47;;;;;;;22.82;63.10;99570.47;4369792;32;32813;-86
2023/07/31 00:43:57;;;;;;;0.45;0.45;;;;;;;22.69;63.79;99568.13;4395063;32;32719;-86
2023/07/31 00:46:24;;;;;;;1.00;0.90;;;;;;;22.67;63.74;99573.66;4377252;32;32909;-86
2023/07/31 00:48:52;;;;;;;0.40;0.40;;;;;;;22.28;65.47;99570.31;4390861;32;33459;-86
2023/07/31 00:51:20;;;;;;;0.08;0.08;;;;;;;22.24;65.74;99572.44;4380039;32;32328;-86
2023/07/31 00:53:48;;;;;;;0.70;0.40;;;;;;;22.45;65.07;99574.03;4379710;32;34325;-86
2023/07/31 00:56:17;;;;;;;0.32;0.32;;;;;;;22.26;65.48;99574.97;4381633;32;33119;-86
2023/07/31 00:58:44;;;;;;;0.30;0.30;;;;;;;22.49;64.64;99567.37;4368313;32;32171;-87
2023/07/31 01:01:12;;;;;;;0.85;0.82;;;;;;;22.34;64.84;99574.25;4398413;32;33897;-86
2023/07/31 01:03:40;;;;;;;0.25;0.25;;;;;;;22.22;65.45;99571.75;4393269;32;34020;-86
2023/07/31 01:06:32;;;;;;;0.20;0.20;;;;;;;22.27;65.28;99582.06;4383800;32;34172;-86
2023/07/31 01:09:10;;;;;;;0.20;0.20;;;;;;;22.40;64.60;99579.03;4392143;32;34097;-86
2023/07/31 01:11:59;;;;;;;0.30;0.30;;;;;;;22.37;64.82;99584.72;4393852;32;32761;-86
2023/07/31 01:14:28;;;;;;;0.20;0.20;;;;;;;22.38;64.74;99581.87;4380692;32;33906;-87
2023/07/31 01:16:55;;;;;;;2.83;0.68;;;;;;;22.57;63.62;99586.31;4394443;32;33950;-86
2023/07/31 01:19:26;;;;;;;0.55;0.55;;;;;;;22.35;64.43;99602.81;4390161;32;34121;-86
2023/07/31 01:22:23;;;;;;;0.15;0.15;;;;;;;22.54;63.95;99599.22;4391206;32;32537;-87
2023/07/31 01:25:06;;;;;;;0.10;0.08;;;;;;;22.39;64.38;99598.84;4387783;32;33477;-87
2023/07/31 01:27:38;;;;;;;0.47;0.40;;;;;;;22.28;65.02;99607.13;4395019;32;34574;-86
2023/07/31 01:30:16;;;;;;;0.50;0.50;;;;;;;22.22;64.99;99600.47;4375216;32;33234;-87
2023/07/31 01:32:47;;;;;;;0.20;0.20;;;;;;;22.15;65.38;99597.50;4378973;32;32955;-87
2023/07/31 01:35:15;;;;;;;0.22;0.22;;;;;;;22.21;64.94;99591.53;4396834;32;34207;-87
2023/07/31 01:37:43;;;;;;;1.73;1.08;;;;;;;22.35;64.33;99589.37;4389930;32;33256;-88
2023/07/31 01:40:11;;;;;;;0.52;0.52;;;;;;;22.39;64.10;99582.72;4380435;32;32807;-88
2023/07/31 01:42:38;;;;;;;0.90;0.37;;;;;;;22.57;63.48;99574.72;4380142;32;33247;-88
2023/07/31 01:45:07;;;;;;;1.37;0.65;;;;;;;22.63;62.82;99574.94;4370472;32;33841;-88
2023/07/31 01:47:35;;;;;;;0.05;0.05;;;;;;;22.28;64.09;99572.16;4395917;32;34647;-89
2023/07/31 01:50:03;;;;;;;1.80;0.45;;;;;;;22.21;64.10;99578.09;4381069;32;33486;-90
2023/07/31 01:52:31;;;;;;;0.50;0.30;;;;;;;22.29;63.87;99560.38;4396627;32;33563;-89
2023/07/31 01:55:00;;;;;;;0.22;0.22;;;;;;;22.19;64.16;99555.91;4394043;32;32840;-89
2023/07/31 01:57:27;;;;;;;0.17;0.17;;;;;;;22.11;64.43;99563.84;4403144;32;33182;-89
2023/07/31 01:59:55;;;;;;;0.13;0.13;;;;;;;22.14;64.05;99568.94;4402690;32;32503;-89
2023/07/31 02:02:23;;;;;;;1.08;1.08;;;;;;;22.10;63.97;99566.66;4396913;32;33567;-89
2023/07/31 02:04:52;;;;;;;1.02;0.85;;;;;;;22.00;64.27;99561.31;4396547;32;33335;-89
2023/07/31 02:07:19;;;;;;;1.08;1.00;;;;;;;22.02;64.40;99562.00;4392860;32;32781;-89
2023/07/31 02:09:47;;;;;;;0.95;0.55;;;;;;;21.90;64.52;99564.03;4386746;32;33405;-88
2023/07/31 02:12:15;;;;;;;0.10;0.10;;;;;;;22.02;63.75;99564.69;4392610;32;34192;-89
2023/07/31 02:14:43;;;;;;;1.77;0.65;;;;;;;21.96;63.62;99567.97;4387166;32;34021;-88
2023/07/31 02:17:10;;;;;;;0.00;0.00;;;;;;;21.78;64.36;99567.00;4396028;32;32672;-88
2023/07/31 02:19:39;;;;;;;0.40;0.40;;;;;;;21.84;64.04;99569.09;4392425;32;33396;-88
2023/07/31 02:22:07;;;;;;;0.20;0.20;;;;;;;21.69;64.21;99568.72;4401691;32;32784;-88
2023/07/31 02:24:35;;;;;;;0.00;0.00;;;;;;;21.58;64.31;99569.72;4404793;32;33204;-86
2023/07/31 02:27:03;;;;;;;0.52;0.43;;;;;;;21.61;64.40;99572.13;4378108;32;33106;-87
2023/07/31 02:29:30;;;;;;;0.00;0.00;;;;;;;21.59;64.46;99576.78;4376389;32;33119;-87
2023/07/31 02:31:58;;;;;;;0.15;0.15;;;;;;;21.70;63.77;99576.66;4393415;32;32864;-86
2023/07/31 02:34:25;;;;;;;4.12;0.52;;;;;;;21.42;64.50;99586.41;4381389;32;33741;-87
2023/07/31 02:36:53;;;;;;;1.42;0.62;;;;;;;21.56;64.26;99589.69;4395969;32;32759;-87
2023/07/31 02:39:21;;;;;;;0.62;0.52;;;;;;;21.74;63.43;99585.25;4381989;32;32684;-87
2023/07/31 02:41:48;;;;;;;0.85;0.30;;;;;;;21.79;63.37;99587.50;4397362;32;33052;-86
2023/07/31 02:44:16;;;;;;;0.00;0.00;;;;;;;21.73;63.40;99584.41;4383168;32;33900;-87
2023/07/31 02:46:44;;;;;;;0.25;0.15;;;;;;;21.67;63.50;99593.03;4384520;32;33828;-87
2023/07/31 02:49:12;;;;;;;0.17;0.17;;;;;;;21.60;63.92;99608.06;4382966;32;33800;-88
2023/07/31 02:51:40;;;;;;;0.10;0.10;;;;;;;21.59;63.88;99613.56;4393486;32;33485;-87
2023/07/31 02:54:08;;;;;;;0.20;0.20;;;;;;;21.53;63.69;99609.59;4383497;32;34646;-87
2023/07/31 02:56:36;;;;;;;0.57;0.40;;;;;;;21.42;64.10;99607.06;4396662;32;32396;-87
2023/07/31 02:59:03;;;;;;;0.08;0.08;;;;;;;21.32;64.08;99614.28;4395021;32;32442;-88
2023/07/31 03:01:31;;;;;;;1.05;0.40;;;;;;;21.59;63.31;99603.66;4375924;32;33525;-87
2023/07/31 03:03:59;;;;;;;0.28;0.22;;;;;;;21.29;64.26;99614.50;4394527;32;33525;-88
2023/07/31 03:06:27;;;;;;;0.00;0.00;;;;;;;21.40;64.13;99611.72;4401540;32;34646;-88
2023/07/31 03:08:55;;;;;;;1.00;0.50;;;;;;;21.41;63.87;99616.09;4394255;32;32774;-87
2023/07/31 03:11:23;;;;;;;0.35;0.35;;;;;;;21.57;63.22;99624.44;4381886;32;34622;-87
2023/07/31 03:13:51;;;;;;;0.05;0.05;;;;;;;21.56;63.28;99625.44;4376137;32;33544;-88
2023/07/31 03:16:18;;;;;;;0.10;0.10;;;;;;;21.65;62.85;99626.44;4380911;32;33157;-87
2023/07/31 03:18:46;;;;;;;0.08;0.08;;;;;;;21.62;62.50;99632.09;4397585;32;33178;-87
2023/07/31 03:21:14;;;;;;;0.30;0.30;;;;;;;21.49;63.09;99626.97;4383948;32;34484;-87
2023/07/31 03:23:43;;;;;;;4.07;1.15;;;;;;;21.49;62.68;99632.34;4381656;32;33654;-87
2023/07/31 03:26:11;;;;;;;0.10;0.10;;;;;;;21.45;63.18;99636.31;4392932;32;34011;-89
2023/07/31 03:28:39;;;;;;;0.32;0.32;;;;;;;21.61;62.45;99631.25;4388401;32;33453;-89
2023/07/31 03:31:08;;;;;;;0.22;0.22;;;;;;;21.47;63.10;99629.81;4391791;32;34543;-87
2023/07/31 03:33:36;;;;;;;0.00;0.00;;;;;;;21.34;63.58;99631.09;4395662;32;34616;-87
2023/07/31 03:36:04;;;;;;;0.05;0.05;;;;;;;21.48;63.25;99636.03;4384224;32;34544;-88
2023/07/31 03:38:32;;;;;;;0.57;0.57;;;;;;;21.71;62.29;99640.16;4400698;32;33289;-88
2023/07/31 03:41:00;;;;;;;0.93;0.68;;;;;;;21.61;62.33;99639.31;4399573;32;34512;-88
2023/07/31 03:43:27;;;;;;;0.10;0.10;;;;;;;21.58;62.55;99631.50;4394184;32;33185;-88
2023/07/31 03:45:55;;;;;;;0.00;0.00;;;;;;;21.58;62.48;99639.56;4381957;32;33624;-86
2023/07/31 03:48:24;;;;;;;0.10;0.10;;;;;;;21.44;62.91;99632.78;4393846;32;33778;-87
2023/07/31 03:50:52;;;;;;;0.20;0.20;;;;;;;21.66;62.02;99637.03;4387818;32;33051;-87
2023/07/31 03:53:19;;;;;;;0.00;0.00;;;;;;;21.59;62.36;99648.47;4387800;32;34515;-87
2023/07/31 03:55:48;;;;;;;0.00;0.00;;;;;;;21.71;61.96;99637.47;4386968;32;34195;-87
2023/07/31 03:58:15;;;;;;;0.47;0.22;;;;;;;21.83;61.75;99645.34;4394341;32;33642;-88
2023/07/31 04:00:43;;;;;;;0.22;0.22;;;;;;;21.73;61.87;99632.78;4390235;32;211122;-88
2023/07/31 04:03:11;;;;;;;0.00;0.00;;;;;;;21.94;61.27;99631.78;4370665;32;32368;-87
2023/07/31 04:05:39;;;;;;;1.45;0.80;;;;;;;21.90;61.39;99633.91;4370955;32;33329;-87
2023/07/31 04:08:07;;;;;;;0.08;0.08;;;;;;;22.16;60.29;99631.47;4382570;32;33457;-87
2023/07/31 04:10:35;;;;;;;1.85;0.65;;;;;;;22.08;60.85;99639.41;4391488;32;33346;-87
2023/07/31 04:13:03;;;;;;;0.17;0.17;;;;;;;22.10;60.93;99642.78;4381369;32;32992;-88
2023/07/31 04:15:32;;;;;;;0.50;0.40;;;;;;;22.13;60.72;99636.31;4371997;32;33793;-88
2023/07/31 04:18:00;;;;;;;1.65;0.30;;;;;;;22.17;60.95;99629.63;4379093;32;33269;-88
2023/07/31 04:20:28;;;;;;;1.90;0.73;;;;;;;22.37;60.26;99633.13;4368401;32;32161;-88
2023/07/31 04:22:55;;;;;;;0.10;0.10;;;;;;;22.41;60.26;99642.63;4355935;32;33755;-87
2023/07/31 04:25:23;;;;;;;0.40;0.40;;;;;;;22.40;59.95;99638.19;4391133;32;33254;-87
2023/07/31 04:27:51;;;;;;;0.13;0.13;;;;;;;22.35;60.17;99637.78;4393674;32;33979;-87
2023/07/31 04:30:18;;;;;;;0.40;0.40;;;;;;;22.32;60.35;99635.41;4373323;32;32519;-87
2023/07/31 04:32:46;;;;;;;1.35;0.30;;;;;;;22.41;60.37;99634.53;4391814;32;33847;-88
2023/07/31 04:35:14;;;;;;;0.70;0.70;;;;;;;22.26;60.75;99630.59;4381175;32;33522;-88
2023/07/31 04:37:41;;;;;;;0.17;0.17;;;;;;;22.44;59.92;99640.47;4378350;32;33142;-88
2023/07/31 04:40:10;;;;;;;0.10;0.00;;;;;;;22.38;60.19;99638.34;4387468;32;33822;-88
2023/07/31 04:42:37;;;;;;;0.00;0.00;;;;;;;22.56;59.56;99630.38;4376598;32;33902;-88
2023/07/31 04:45:05;;;;;;;0.00;0.00;;;;;;;22.51;59.42;99626.44;4377152;32;33944;-88
2023/07/31 04:47:33;;;;;;;1.10;0.75;;;;;;;22.66;58.26;99619.56;4364231;32;32498;-88
2023/07/31 04:50:01;;;;;;;0.25;0.10;;;;;;;22.56;58.32;99626.84;4365505;32;32829;-88
2023/07/31 04:52:28;;;;;;;0.20;0.10;;;;;;;22.36;59.32;99634.09;4372861;32;33826;-88
2023/07/31 04:54:56;;;;;;;0.10;0.10;;;;;;;22.36;59.66;99631.41;4380255;32;33902;-89
2023/07/31 04:57:24;;;;;;;1.23;0.70;;;;;;;22.51;59.13;99638.03;4389930;32;34388;-89
2023/07/31 04:59:51;;;;;;;0.55;0.43;;;;;;;22.65;56.93;99634.87;4378321;32;33709;-89
2023/07/31 05:02:19;;;;;;;0.30;0.30;;;;;;;22.23;57.86;99632.59;4377928;32;34101;-89
2023/07/31 05:04:47;;;;;;;0.20;0.20;;;;;;;22.13;58.91;99645.22;4378110;32;32791;-89
2023/07/31 05:07:15;;;;;;;0.30;0.28;;;;;;;21.96;58.70;99635.16;4383297;32;32656;-89
2023/07/31 05:09:43;;;;;;;0.88;0.37;;;;;;;22.04;57.92;99631.78;4382480;32;32429;-88
2023/07/31 05:12:10;;;;;;;0.00;0.00;;;;;;;22.14;57.40;99638.84;4388415;32;33000;-89
2023/07/31 05:14:38;;;;;;;0.00;0.00;;;;;;;22.37;54.95;99633.97;4384874;32;32817;-89
2023/07/31 05:17:06;;;;;;;0.40;0.20;;;;;;;22.61;54.04;99627.25;4386012;32;32223;-88
2023/07/31 05:19:33;;;;;;;0.45;0.45;;;;;;;22.48;54.18;99631.09;4383970;32;32712;-87
2023/07/31 05:22:01;;;;;;;0.03;0.00;;;;;;;22.24;54.50;99636.97;4382048;32;32959;-88
2023/07/31 05:24:29;;;;;;;0.10;0.10;;;;;;;22.50;53.37;99633.63;4384051;32;33749;-87
2023/07/31 05:26:57;;;;;;;0.20;0.20;;;;;;;22.55;52.59;99628.69;4382675;32;33016;-87
2023/07/31 05:29:24;;;;;;;2.05;0.32;;;;;;;21.67;53.54;99637.88;4381827;32;33034;-86
2023/07/31 05:31:52;;;;;;;0.17;0.17;;;;;;;22.28;52.84;99634.00;4383446;32;32951;-86
2023/07/31 05:34:20;;;;;;;0.32;0.15;;;;;;;22.07;52.54;99637.69;4383490;32;32833;-86
2023/07/31 05:36:47;;;;;;;0.10;0.10;;;;;;;22.23;52.98;99642.50;4397062;32;33337;-87
2023/07/31 05:39:15;;;;;;;0.37;0.37;;;;;;;22.33;52.66;99637.09;4384841;32;33272;-87
2023/07/31 05:41:43;;;;;;;0.20;0.20;;;;;;;22.40;52.61;99646.28;4384628;32;33823;-87
2023/07/31 05:44:10;;;;;;;0.15;0.10;;;;;;;22.41;51.42;99643.47;4398219;32;33416;-86
2023/07/31 05:46:38;;;;;;;0.00;0.00;;;;;;;22.63;50.65;99647.59;4381638;32;33565;-87
2023/07/31 05:49:07;;;;;;;0.05;0.05;;;;;;;22.65;50.21;99642.94;4383948;32;33688;-87
2023/07/31 05:51:34;;;;;;;0.00;0.00;;;;;;;22.72;50.81;99641.34;4394053;32;33767;-87
2023/07/31 05:54:02;;;;;;;0.10;0.10;;;;;;;22.47;51.88;99644.72;4378718;32;32594;-87
2023/07/31 05:56:30;;;;;;;0.10;0.10;;;;;;;23.03;48.92;99637.56;4378469;32;32623;-90
2023/07/31 05:58:57;;;;;;;0.00;0.00;;;;;;;22.85;49.55;99643.69;4375304;32;33164;-90
2023/07/31 06:01:25;;;;;;;0.00;0.00;;;;;;;22.75;50.41;99637.53;4396811;32;33789;-90
2023/07/31 06:03:53;;;;;;;0.05;0.05;;;;;;;23.16;48.98;99640.72;4389095;32;34234;-90
2023/07/31 06:06:21;;;;;;;0.00;0.00;;;;;;;23.31;47.59;99643.72;4389042;32;32194;-90
2023/07/31 06:08:49;;;;;;;0.00;0.00;;;;;;;22.74;49.88;99647.44;4400274;32;34105;-89
2023/07/31 06:11:18;;;;;;;2.17;0.60;;;;;;;22.78;49.54;99647.12;4378893;32;33636;-90
2023/07/31 06:13:48;;;;;;;0.25;0.15;;;;;;;23.43;47.88;99648.75;4373879;32;32281;-90
2023/07/31 06:16:16;;;;;;;0.35;0.30;;;;;;;23.37;49.75;99637.75;4385643;32;32753;-90
2023/07/31 06:18:44;;;;;;;0.00;0.00;;;;;;;23.56;48.83;99636.75;4389885;32;32512;-90
2023/07/31 06:21:12;;;;;;;0.20;0.20;;;;;;;24.04;47.45;99639.03;4385997;32;33080;-90
2023/07/31 06:23:40;;;;;;;1.45;0.80;;;;;;;24.13;47.49;99637.25;4375913;32;33212;-90
2023/07/31 06:26:07;;;;;;;0.17;0.10;;;;;;;24.22;46.91;99639.84;4366901;32;32438;-90
2023/07/31 06:28:35;;;;;;;0.20;0.20;;;;;;;24.21;47.53;99642.69;4382532;32;33052;-90
2023/07/31 06:31:03;;;;;;;0.08;0.03;;;;;;;24.06;47.07;99647.81;4362561;32;32924;-91
2023/07/31 06:33:31;;;;;;;0.40;0.40;;;;;;;23.67;46.65;99634.69;4389717;32;33827;-90
2023/07/31 06:35:58;;;;;;;0.25;0.25;;;;;;;23.97;46.25;99637.97;4386470;32;32929;-91
2023/07/31 06:38:26;;;;;;;0.70;0.57;;;;;;;24.11;46.63;99648.19;4387586;32;33096;-91
2023/07/31 06:40:55;;;;;;;0.20;0.10;;;;;;;24.24;45.18;99643.22;4392606;32;34042;-90
2023/07/31 06:43:23;;;;;;;0.28;0.28;;;;;;;24.30;44.48;99641.75;4388239;32;32494;-90
2023/07/31 06:45:52;;;;;;;0.80;0.80;;;;;;;23.50;46.44;99649.84;4377071;32;33386;-90
2023/07/31 06:48:20;;;;;;;0.00;0.00;;;;;;;23.85;46.21;99653.56;4395948;32;32619;-90
2023/07/31 06:50:48;;;;;;;0.13;0.13;;;;;;;23.73;46.22;99650.25;4394637;32;33049;-89
2023/07/31 06:53:16;;;;;;;2.05;0.32;;;;;;;23.38;46.57;99651.06;4375221;32;32892;-91
2023/07/31 06:55:43;;;;;;;0.55;0.55;;;;;;;23.68;45.75;99654.41;4385601;32;33361;-90
2023/07/31 06:58:11;;;;;;;0.28;0.28;;;;;;;23.46;47.26;99659.22;4380204;32;34515;-90
2023/07/31 07:00:39;;;;;;;0.13;0.13;;;;;;;23.14;47.88;99667.81;4374950;32;34659;-90
2023/07/31 07:03:07;;;;;;;0.30;0.10;;;;;;;23.76;46.37;99668.81;4369555;32;32729;-89
2023/07/31 07:05:34;;;;;;;0.30;0.30;;;;;;;23.10;48.21;99668.25;4369493;32;32499;-90
2023/07/31 07:08:02;;;;;;;5.93;0.43;;;;;;;23.21;47.88;99666.19;4384365;32;31755;-90
2023/07/31 07:10:31;;;;;;;0.10;0.10;;;;;;;23.43;46.95;99662.22;4373718;32;33571;-90
2023/07/31 07:12:59;;;;;;;0.00;0.00;;;;;;;23.49;47.94;99668.84;4361357;32;32544;-91
2023/07/31 07:15:26;;;;;;;0.35;0.35;;;;;;;23.85;47.21;99660.81;4384091;32;33859;-90
2023/07/31 07:17:54;;;;;;;0.47;0.17;;;;;;;23.72;47.50;99675.50;4362095;32;33025;-91
2023/07/31 07:20:22;;;;;;;1.00;0.15;;;;;;;24.18;46.71;99672.69;4373217;32;30926;-90
2023/07/31 07:22:52;;;;;;;0.13;0.13;;;;;;;24.66;44.32;99668.66;4352417;32;33000;-90
2023/07/31 07:25:20;;;;;;;4.53;0.22;;;;;;;24.23;44.84;99668.53;4359174;32;33319;-90
2023/07/31 07:27:47;;;;;;;0.13;0.13;;;;;;;23.94;45.16;99673.34;4371607;32;32946;-91
2023/07/31 07:30:15;;;;;;;0.10;0.10;;;;;;;24.47;43.38;99670.56;4358919;32;33171;-91
2023/07/31 07:32:43;;;;;;;0.40;0.40;;;;;;;24.58;42.95;99672.13;4370686;32;34034;-90
2023/07/31 07:35:11;;;;;;;0.13;0.13;;;;;;;24.86;42.57;99658.44;4374700;32;33792;-91
2023/07/31 07:37:39;;;;;;;0.20;0.20;;;;;;;24.18;43.92;99670.84;4386510;32;33953;-90
2023/07/31 07:40:08;;;;;;;1.55;1.02;;;;;;;24.57;42.61;99670.44;4367336;32;34283;-90
2023/07/31 07:42:35;;;;;;;0.37;0.30;;;;;;;24.33;43.41;99673.81;4345171;32;32298;-90
2023/07/31 07:45:03;;;;;;;0.22;0.20;;;;;;;24.11;44.11;99674.31;4374074;32;33540;-90
2023/07/31 07:47:31;;;;;;;0.22;0.08;;;;;;;24.41;42.70;99667.66;4373126;32;32798;-90
2023/07/31 07:49:59;;;;;;;0.40;0.30;;;;;;;24.27;43.20;99672.59;4364356;32;33172;-90
2023/07/31 07:52:27;;;;;;;0.00;0.00;;;;;;;24.37;43.05;99674.38;4373471;32;32507;-89
2023/07/31 07:54:55;;;;;;;0.10;0.10;;;;;;;24.31;43.68;99674.97;4373125;32;33069;-90
2023/07/31 07:57:23;;;;;;;0.00;0.00;;;;;;;24.32;43.41;99668.59;4381159;32;32948;-90
2023/07/31 07:59:50;;;;;;;0.10;0.10;;;;;;;24.16;44.42;99666.59;4374716;32;34622;-90
2023/07/31 08:02:18;;;;;;;0.22;0.22;;;;;;;24.58;42.35;99655.09;4373070;32;32398;-91
2023/07/31 08:04:46;;;;;;;0.37;0.32;;;;;;;24.83;41.53;99669.56;4387416;32;31915;-91
2023/07/31 08:07:14;;;;;;;0.13;0.13;;;;;;;24.84;41.41;99668.56;4360186;32;33181;-91
2023/07/31 08:09:42;;;;;;;0.22;0.10;;;;;;;25.03;40.92;99665.63;4360995;32;33230;-90
2023/07/31 08:12:09;;;;;;;0.20;0.20;;;;;;;25.16;40.59;99670.56;4375293;32;33900;-90
2023/07/31 08:14:37;;;;;;;0.57;0.57;;;;;;;25.51;40.38;99658.69;4377730;32;33814;-90
2023/07/31 08:17:05;;;;;;;2.30;0.35;;;;;;;25.81;39.71;99664.50;4381460;32;33119;-91
2023/07/31 08:19:33;;;;;;;0.47;0.47;;;;;;;25.83;39.44;99665.16;4371230;32;33838;-91
2023/07/31 08:22:01;;;;;;;0.30;0.30;;;;;;;25.65;38.47;99674.25;4379103;32;34119;-91
2023/07/31 08:24:29;;;;;;;0.57;0.57;;;;;;;26.15;37.23;99673.28;4368266;32;33654;-91
2023/07/31 08:26:57;;;;;;;0.30;0.08;;;;;;;26.02;37.68;99681.09;4380538;32;32739;-91
2023/07/31 08:29:25;;;;;;;0.00;0.00;;;;;;;25.85;38.14;99668.56;4377611;32;34067;-90
2023/07/31 08:31:53;;;;;;;0.30;0.30;;;;;;;25.50;38.61;99668.66;4373725;32;33940;-91
2023/07/31 08:34:22;;;;;;;0.62;0.32;;;;;;;25.85;38.52;99672.09;4387257;32;32339;-91
2023/07/31 08:36:49;;;;;;;0.10;0.10;;;;;;;25.88;37.47;99676.34;4370533;32;33352;-90
2023/07/31 08:39:17;;;;;;;0.52;0.52;;;;;;;26.00;38.79;99674.97;4385639;32;33620;-91
2023/07/31 08:41:45;;;;;;;2.75;0.55;;;;;;;25.82;40.14;99677.00;4381821;32;33682;-92
2023/07/31 08:44:14;;;;;;;0.60;0.45;;;;;;;25.77;38.87;99675.63;4370381;32;32766;-91
2023/07/31 08:46:41;;;;;;;0.00;0.00;;;;;;;25.93;39.34;99671.28;4370276;32;34244;-91
2023/07/31 08:49:10;;;;;;;0.10;0.10;;;;;;;26.46;37.42;99667.19;4378811;32;33765;-91
2023/07/31 08:51:38;;;;;;;0.32;0.32;;;;;;;26.46;37.67;99661.78;4385251;32;33228;-91
2023/07/31 08:54:06;;;;;;;0.00;0.00;;;;;;;26.25;37.69;99678.50;4373906;32;32453;-90
2023/07/31 08:56:34;;;;;;;0.77;0.30;;;;;;;26.22;38.26;99673.47;4356497;32;34066;-92
2023/07/31 08:59:04;;;;;;;0.40;0.40;;;;;;;26.41;37.75;99672.25;4387309;32;32888;-91
2023/07/31 09:01:36;;;;;;;0.30;0.30;;;;;;;26.46;37.24;99664.47;4374268;32;32979;-90
2023/07/31 09:04:05;;;;;;;0.82;0.25;;;;;;;26.30;37.03;99670.72;4372596;32;32112;-91
2023/07/31 09:06:42;;;;;;;0.55;0.52;;;;;;;26.33;37.76;99664.13;4383814;32;32991;-92
2023/07/31 09:09:10;;;;;;;1.40;0.60;;;;;;;26.20;37.75;99660.06;4373499;32;33239;-91
2023/07/31 09:11:37;;;;;;;0.68;0.68;;;;;;;26.57;36.68;99655.97;4388382;32;32964;-91
2023/07/31 09:14:08;;;;;;;0.00;0.00;;;;;;;26.40;38.24;99644.34;4386825;32;32626;-91
2023/07/31 09:16:51;;;;;;;0.35;0.22;;;;;;;26.41;37.86;99645.19;4385800;32;32830;-91
2023/07/31 09:19:43;;;;;;;0.32;0.32;;;;;;;26.98;36.53;99642.31;4370562;32;33388;-90
2023/07/31 09:22:11;;;;;;;0.10;0.10;;;;;;;27.20;37.34;99641.50;4379897;32;34296;-91
2023/07/31 09:24:38;;;;;;;0.10;0.08;;;;;;;27.14;35.11;99639.53;4379389;32;32491;-91
2023/07/31 09:27:06;;;;;;;0.85;0.50;;;;;;;27.06;35.82;99639.53;4372336;32;33170;-92
2023/07/31 09:29:34;;;;;;;0.60;0.60;;;;;;;26.58;37.33;99636.00;4384800;32;34334;-90
2023/07/31 09:32:02;;;;;;;6.90;1.27;;;;;;;26.89;37.49;99629.81;4374863;32;34011;-91
2023/07/31 09:34:38;;;;;;;0.10;0.10;;;;;;;26.83;37.65;99633.22;4374447;32;32260;-91
2023/07/31 09:37:06;;;;;;;10.73;0.62;;;;;;;27.02;37.11;99636.34;4372116;32;33121;-90
2023/07/31 09:39:45;;;;;;;1.27;0.75;;;;;;;27.31;35.14;99630.28;4369496;32;33551;-91
2023/07/31 09:42:13;;;;;;;10.13;0.90;;;;;;;27.25;35.67;99633.72;4364224;32;33729;-90
2023/07/31 09:44:41;;;;;;;0.00;0.00;;;;;;;26.79;36.57;99633.56;4372486;32;33349;-91
2023/07/31 09:47:23;;;;;;;1.65;0.50;;;;;;;26.98;35.74;99628.75;4374533;32;32438;-88
2023/07/31 09:49:52;;;;;;;0.20;0.20;;;;;;;27.04;36.23;99636.16;4386454;32;34239;-88
2023/07/31 09:52:20;;;;;;;0.30;0.30;;;;;;;27.26;34.87;99618.31;4385670;32;32453;-88
2023/07/31 09:54:48;;;;;;;1.15;0.90;;;;;;;27.28;35.56;99621.66;4385952;32;32426;-87
2023/07/31 09:57:17;;;;;;;0.03;0.03;;;;;;;27.77;33.69;99632.19;4376247;32;33141;-88
2023/07/31 09:59:47;;;;;;;0.00;0.00;;;;;;;27.78;33.33;99623.03;4374247;32;33092;-87
2023/07/31 10:02:23;;;;;;;0.40;0.40;;;;;;;27.73;34.27;99626.31;4368921;32;32528;-88
2023/07/31 10:04:51;;;;;;;0.43;0.28;;;;;;;27.75;35.19;99634.25;4374426;32;33740;-88
2023/07/31 10:07:20;;;;;;;0.30;0.08;;;;;;;27.73;34.03;99636.31;4367940;32;33317;-88
2023/07/31 10:09:48;;;;;;;0.08;0.08;;;;;;;27.83;33.55;99636.91;4371516;32;33934;-87
2023/07/31 10:12:19;;;;;;;0.00;0.00;;;;;;;27.59;33.42;99629.78;4376908;32;33634;-86
2023/07/31 10:14:47;;;;;;;0.08;0.03;;;;;;;27.93;33.82;99636.66;4383604;32;33724;-87
2023/07/31 10:17:15;;;;;;;0.32;0.20;;;;;;;27.77;34.73;99629.47;4380359;32;34129;-87
2023/07/31 10:19:43;;;;;;;0.00;0.00;;;;;;;27.92;33.42;99630.38;4359714;32;33625;-86
2023/07/31 10:22:11;;;;;;;1.40;1.15;;;;;;;28.19;32.90;99626.22;4372203;32;31398;-87
2023/07/31 10:24:42;;;;;;;0.00;0.00;;;;;;;28.46;33.09;99623.94;4371408;32;33710;-87
2023/07/31 10:27:10;;;;;;;0.60;0.60;;;;;;;28.25;32.88;99636.34;4379491;32;32992;-87
2023/07/31 10:29:43;;;;;;;3.03;0.57;;;;;;;28.11;33.70;99618.16;4367421;32;32464;-85
2023/07/31 10:32:11;;;;;;;0.75;0.28;;;;;;;28.34;32.29;99615.41;4372964;32;33775;-88
2023/07/31 10:34:40;;;;;;;0.03;0.03;;;;;;;28.36;33.29;99621.50;4360696;32;33331;-88
2023/07/31 10:37:22;;;;;;;0.88;0.88;;;;;;;28.02;33.01;99622.00;4371328;32;33048;-88
2023/07/31 10:40:00;;;;;;;0.03;0.03;;;;;;;27.76;33.68;99617.78;4370447;32;33361;-88
2023/07/31 10:42:34;;;;;;;0.28;0.28;;;;;;;28.21;32.88;99617.91;4383377;32;33453;-89
2023/07/31 10:45:09;;;;;;;0.10;0.10;;;;;;;28.27;32.95;99601.69;4382878;32;33887;-88
2023/07/31 10:47:44;;;;;;;0.20;0.20;;;;;;;28.18;32.58;99594.66;4383324;32;33705;-88
2023/07/31 10:50:19;;;;;;;0.10;0.10;;;;;;;28.05;32.21;99605.31;4340948;32;32870;-88
2023/07/31 10:52:52;;;;;;;0.70;0.40;;;;;;;27.77;33.06;99605.94;4383849;32;32826;-88
2023/07/31 10:55:28;;;;;;;0.20;0.10;;;;;;;27.80;32.83;99605.53;4359406;32;33655;-87
2023/07/31 10:57:58;;;;;;;0.20;0.20;;;;;;;28.23;32.72;99603.09;4364473;32;35334;-88
2023/07/31 11:00:28;;;;;;;0.32;0.20;;;;;;;28.64;31.43;99602.69;4369780;32;32877;-88
2023/07/31 11:03:10;;;;;;;0.00;0.00;;;;;;;28.98;31.70;99604.81;4384940;32;32955;-89
2023/07/31 11:05:44;;;;;;;5.62;0.25;;;;;;;29.10;30.54;99599.72;4379339;32;33352;-88
2023/07/31 11:08:21;;;;;;;0.85;0.32;;;;;;;28.80;30.83;99602.47;4373183;32;34183;-89
2023/07/31 11:11:07;;;;;;;5.95;0.75;;;;;;;28.53;32.46;99597.69;4383745;32;33168;-88
2023/07/31 11:13:41;;;;;;;0.35;0.35;;;;;;;28.84;30.38;99587.47;4370253;32;33949;-89
2023/07/31 11:16:16;;;;;;;6.60;1.45;;;;;;;28.65;30.37;99582.63;4371253;32;34164;-88
2023/07/31 11:18:55;;;;;;;0.40;0.40;;;;;;;28.92;29.31;99593.84;4373326;32;33612;-89
2023/07/31 11:21:25;;;;;;;0.00;0.00;;;;;;;28.90;29.95;99585.88;4366739;32;33321;-88
2023/07/31 11:24:01;;;;;;;0.55;0.55;;;;;;;28.75;29.95;99576.91;4371909;32;32721;-89
2023/07/31 11:26:30;;;;;;;6.12;0.70;;;;;;;28.81;29.57;99576.13;4355772;32;32497;-89
2023/07/31 11:29:08;;;;;;;2.47;0.88;;;;;;;28.84;29.36;99579.31;4371217;32;33746;-89
2023/07/31 11:31:46;;;;;;;0.55;0.43;;;;;;;29.07;29.56;99570.22;4368991;32;34203;-89
2023/07/31 11:34:20;;;;;;;0.70;0.52;;;;;;;29.05;29.27;99566.81;4373310;32;34495;-90
2023/07/31 11:36:55;;;;;;;0.43;0.43;;;;;;;29.20;29.22;99564.06;4382858;32;33246;-89
2023/07/31 11:39:25;;;;;;;0.08;0.05;;;;;;;28.98;28.80;99576.78;4360588;32;33572;-89
2023/07/31 11:41:59;;;;;;;0.95;0.52;;;;;;;29.47;28.15;99576.06;4382196;32;34267;-89
2023/07/31 11:44:41;;;;;;;0.47;0.47;;;;;;;29.37;30.07;99583.69;4379372;32;34376;-88